Time;durP1;ratioP1;P1;durP2;ratioP2;P2;SDS_P1;SDS_P2;PMS_P1;PMS_P2;Temp;Humidity;BMP_temperature;BMP_pressure;BME280_temperature;BME280_humidity;BME280_pressure;Samples;Min_cycle;Max_cycle;Signal;HPM_P1;HPM_P2
2021/12/17 00:04:29;;;;;;;64.50;30.67;;;;;;;;;;5039973;28;20970;-66
2021/12/17 00:06:57;;;;;;;70.67;33.13;;;;;;;;;;5074233;28;20432;-66
2021/12/17 00:09:24;;;;;;;70.27;32.63;;;;;;;;;;5073928;28;20498;-66
2021/12/17 00:11:51;;;;;;;67.57;31.47;;;;;;;;;;5073574;28;20850;-65
2021/12/17 00:14:26;;;;;;;68.47;32.70;;;;;;;;;;5073404;28;20475;-66
2021/12/17 00:16:53;;;;;;;73.83;32.47;;;;;;;;;;5073782;28;20500;-66
2021/12/17 00:19:35;;;;;;;64.17;30.63;;;;;;;;;;5073092;28;20432;-65
2021/12/17 00:46:33;;;;;;;86.47;33.57;;;;;;;;;;5076780;28;20427;-65
2021/12/17 00:50:00;;;;;;;87.87;36.20;;;;;;;;;;5076753;28;20819;-65
2021/12/17 00:52:33;;;;;;;89.87;36.70;;;;;;;;;;5076720;28;20981;-65
2021/12/17 00:55:00;;;;;;;76.47;33.20;;;;;;;;;;5076857;28;20405;-64
2021/12/17 00:57:34;;;;;;;85.53;31.67;;;;;;;;;;5076624;28;20485;-64
2021/12/17 01:00:02;;;;;;;75.70;32.93;;;;;;;;;;5076943;28;20519;-65
2021/12/17 01:02:30;;;;;;;75.33;35.70;;;;;;;;;;5076228;28;20535;-64
2021/12/17 01:04:59;;;;;;;73.17;34.47;;;;;;;;;;5076245;28;20565;-64
2021/12/17 01:07:28;;;;;;;76.13;34.63;;;;;;;;;;5076186;28;20447;-64
2021/12/17 01:09:57;;;;;;;71.87;32.40;;;;;;;;;;5076147;28;20468;-64
2021/12/17 01:12:25;;;;;;;71.57;34.17;;;;;;;;;;5076065;28;20443;-64
2021/12/17 01:14:52;;;;;;;70.63;31.37;;;;;;;;;;5075930;28;20476;-64
2021/12/17 01:17:20;;;;;;;73.20;33.20;;;;;;;;;;5076428;28;20457;-64
2021/12/17 01:22:48;;;;;;;68.43;33.17;;;;;;;;;;5075808;28;20464;-64
2021/12/17 01:25:23;;;;;;;80.97;33.57;;;;;;;;;;5075969;28;20436;-64
2021/12/17 01:36:19;;;;;;;81.30;34.87;;;;;;;;;;5075936;28;20491;-64
2021/12/17 01:41:57;;;;;;;90.87;36.33;;;;;;;;;;5075790;28;20404;-65
2021/12/17 01:44:25;;;;;;;74.17;31.93;;;;;;;;;;5075934;28;20486;-64
2021/12/17 01:46:53;;;;;;;86.20;37.23;;;;;;;;;;5075820;28;20463;-64
2021/12/17 01:55:40;;;;;;;94.70;36.50;;;;;;;;;;5075489;28;20432;-64
2021/12/17 02:00:38;;;;;;;83.20;35.00;;;;;;;;;;5075411;28;20541;-64
2021/12/17 02:03:06;;;;;;;86.97;32.30;;;;;;;;;;5075271;28;20437;-64
2021/12/17 02:05:34;;;;;;;80.90;32.37;;;;;;;;;;5075169;28;20437;-65
2021/12/17 02:08:01;;;;;;;94.13;36.30;;;;;;;;;;5075867;28;20475;-64
2021/12/17 02:11:03;;;;;;;95.17;36.17;;;;;;;;;;5075304;28;20445;-65
2021/12/17 02:22:28;;;;;;;103.20;37.80;;;;;;;;;;5075030;28;20442;-65
2021/12/17 02:33:08;;;;;;;90.20;33.97;;;;;;;;;;5048802;28;20425;-64
2021/12/17 02:35:40;;;;;;;84.07;35.63;;;;;;;;;;5075026;28;20870;-65
2021/12/17 02:38:10;;;;;;;86.43;38.20;;;;;;;;;;5074559;28;20451;-65
2021/12/17 02:46:08;;;;;;;81.80;34.17;;;;;;;;;;5074476;28;20559;-65
2021/12/17 02:48:35;;;;;;;85.97;33.40;;;;;;;;;;5074594;28;20471;-65
2021/12/17 02:51:03;;;;;;;73.00;30.60;;;;;;;;;;5074192;28;20534;-64
2021/12/17 02:53:31;;;;;;;84.53;34.60;;;;;;;;;;5074214;28;20792;-64
2021/12/17 02:56:00;;;;;;;75.90;31.60;;;;;;;;;;5075015;28;21130;-64
2021/12/17 02:58:28;;;;;;;78.35;31.38;;;;;;;;;;5074399;28;20527;-64
2021/12/17 03:00:56;;;;;;;80.60;31.80;;;;;;;;;;5074814;28;20606;-64
2021/12/17 03:03:25;;;;;;;72.20;30.73;;;;;;;;;;5074315;28;20479;-64
2021/12/17 03:05:53;;;;;;;77.40;33.07;;;;;;;;;;5073699;28;20472;-64
2021/12/17 03:08:21;;;;;;;85.00;31.30;;;;;;;;;;5074181;28;20469;-64
2021/12/17 03:10:50;;;;;;;75.40;33.13;;;;;;;;;;5074169;28;20444;-64
2021/12/17 03:13:18;;;;;;;76.40;31.37;;;;;;;;;;5074134;28;20468;-64
2021/12/17 03:15:50;;;;;;;85.53;34.00;;;;;;;;;;5073598;28;20958;-64
2021/12/17 03:23:44;;;;;;;83.17;32.10;;;;;;;;;;5073755;28;20470;-65
2021/12/17 03:26:14;;;;;;;86.80;31.50;;;;;;;;;;5073596;28;20457;-64
2021/12/17 03:28:42;;;;;;;75.80;33.03;;;;;;;;;;5073877;28;20525;-64
2021/12/17 03:31:10;;;;;;;67.97;31.60;;;;;;;;;;5073794;28;20248;-64
2021/12/17 03:33:38;;;;;;;68.37;30.20;;;;;;;;;;5073560;28;20472;-64
2021/12/17 03:36:05;;;;;;;65.57;30.23;;;;;;;;;;5073701;28;20525;-64
2021/12/17 03:38:33;;;;;;;64.07;29.20;;;;;;;;;;5073726;28;20436;-64
2021/12/17 03:41:12;;;;;;;63.67;28.73;;;;;;;;;;5073751;28;20486;-64
2021/12/17 03:43:41;;;;;;;80.40;31.30;;;;;;;;;;5074279;28;20424;-64
2021/12/17 03:46:09;;;;;;;62.97;27.37;;;;;;;;;;5073633;28;20509;-64
2021/12/17 03:48:39;;;;;;;60.97;29.83;;;;;;;;;;5073183;28;20506;-65
2021/12/17 03:51:11;;;;;;;57.77;27.10;;;;;;;;;;5073303;28;20972;-64
2021/12/17 03:53:38;;;;;;;62.17;28.77;;;;;;;;;;5073675;28;20437;-64
2021/12/17 03:56:06;;;;;;;72.97;29.60;;;;;;;;;;5073185;28;20571;-64
2021/12/17 03:58:34;;;;;;;59.23;27.27;;;;;;;;;;5073248;28;20447;-65
2021/12/17 04:01:02;;;;;;;63.63;28.20;;;;;;;;;;5073142;28;20445;-64
2021/12/17 04:03:30;;;;;;;56.27;28.30;;;;;;;;;;5073117;28;20532;-64
2021/12/17 04:05:57;;;;;;;71.63;29.27;;;;;;;;;;5073384;28;20497;-64
2021/12/17 04:08:24;;;;;;;56.77;26.57;;;;;;;;;;5074012;28;20439;-65
2021/12/17 04:10:54;;;;;;;58.33;29.23;;;;;;;;;;5073525;28;20480;-65
2021/12/17 04:13:28;;;;;;;59.40;26.50;;;;;;;;;;5073634;28;20436;-64
2021/12/17 04:15:59;;;;;;;50.73;24.50;;;;;;;;;;5072966;28;20488;-65
2021/12/17 04:18:28;;;;;;;53.83;24.80;;;;;;;;;;5076703;28;20429;-64
2021/12/17 04:20:55;;;;;;;49.17;23.93;;;;;;;;;;5077163;28;21010;-64
2021/12/17 04:23:23;;;;;;;49.40;24.73;;;;;;;;;;5077695;28;20448;-64
2021/12/17 04:25:51;;;;;;;46.37;22.07;;;;;;;;;;5076920;28;20441;-64
2021/12/17 04:28:18;;;;;;;48.00;23.77;;;;;;;;;;5076899;28;20440;-65
2021/12/17 04:30:45;;;;;;;43.03;23.00;;;;;;;;;;5077200;28;20440;-65
2021/12/17 04:33:13;;;;;;;43.30;21.77;;;;;;;;;;5076910;28;20531;-64
2021/12/17 04:35:42;;;;;;;45.37;21.87;;;;;;;;;;5076792;28;20479;-64
2021/12/17 04:38:11;;;;;;;40.57;19.37;;;;;;;;;;5076819;28;20538;-65
2021/12/17 04:40:40;;;;;;;46.07;23.13;;;;;;;;;;5076883;28;20934;-65
2021/12/17 04:43:19;;;;;;;61.20;23.90;;;;;;;;;;5077274;28;20989;-64
2021/12/17 04:45:53;;;;;;;59.50;25.57;;;;;;;;;;5076794;28;20480;-66
2021/12/17 04:59:21;;;;;;;46.20;21.47;;;;;;;;;;5076304;28;20439;-64
2021/12/17 05:01:49;;;;;;;36.60;16.33;;;;;;;;;;5076622;28;20609;-65
2021/12/17 05:04:16;;;;;;;40.80;18.00;;;;;;;;;;5076681;28;20436;-65
2021/12/17 05:06:44;;;;;;;47.13;19.93;;;;;;;;;;5076250;28;20471;-64
2021/12/17 05:09:23;;;;;;;37.83;18.80;;;;;;;;;;5076501;28;20468;-66
2021/12/17 05:20:17;;;;;;;41.53;18.50;;;;;;;;;;5076200;28;20404;-65
2021/12/17 05:22:50;;;;;;;36.13;17.30;;;;;;;;;;5075998;28;20490;-67
2021/12/17 05:25:17;;;;;;;32.33;16.70;;;;;;;;;;5076589;28;20443;-66
2021/12/17 05:27:45;;;;;;;42.20;16.93;;;;;;;;;;5075074;28;20927;-67
2021/12/17 05:30:12;;;;;;;37.00;15.67;;;;;;;;;;5093907;28;20531;-66
2021/12/17 05:32:39;;;;;;;31.20;16.00;;;;;;;;;;5095867;28;20856;-67
2021/12/17 05:35:07;;;;;;;30.03;13.70;;;;;;;;;;5095465;28;20560;-66
2021/12/17 05:37:35;;;;;;;28.80;15.20;;;;;;;;;;5095453;28;20510;-67
2021/12/17 05:40:04;;;;;;;28.27;12.83;;;;;;;;;;5095965;28;20518;-66
2021/12/17 05:42:31;;;;;;;26.73;14.30;;;;;;;;;;5096545;28;20861;-66
2021/12/17 05:45:07;;;;;;;23.42;12.13;;;;;;;;;;5095872;28;20462;-66
2021/12/17 05:47:34;;;;;;;22.97;12.73;;;;;;;;;;5095822;28;20186;-67
2021/12/17 05:50:01;;;;;;;23.37;12.30;;;;;;;;;;5095862;28;20502;-67
2021/12/17 05:52:29;;;;;;;23.20;12.40;;;;;;;;;;5095874;28;20494;-66
2021/12/17 05:54:56;;;;;;;28.97;14.87;;;;;;;;;;5095808;28;20436;-67
2021/12/17 05:57:25;;;;;;;24.60;12.30;;;;;;;;;;5095627;28;20471;-67
2021/12/17 05:59:52;;;;;;;28.73;12.77;;;;;;;;;;5095564;28;20200;-67
2021/12/17 06:02:19;;;;;;;25.80;12.50;;;;;;;;;;5095354;28;21013;-66
2021/12/17 06:04:47;;;;;;;19.07;10.60;;;;;;;;;;5095533;28;20482;-67
2021/12/17 06:07:14;;;;;;;23.37;11.23;;;;;;;;;;5095637;28;20997;-67
2021/12/17 06:09:41;;;;;;;24.90;11.90;;;;;;;;;;5095211;28;20446;-66
2021/12/17 06:12:09;;;;;;;22.93;12.03;;;;;;;;;;5095513;28;20479;-67
2021/12/17 06:14:38;;;;;;;22.20;11.30;;;;;;;;;;5095119;28;20483;-68
2021/12/17 06:17:06;;;;;;;18.55;9.00;;;;;;;;;;5095557;28;20467;-69
2021/12/17 06:19:33;;;;;;;22.10;10.50;;;;;;;;;;5094817;28;20284;-66
2021/12/17 06:22:00;;;;;;;23.10;11.50;;;;;;;;;;5095268;28;20255;-67
2021/12/17 06:24:28;;;;;;;25.08;11.73;;;;;;;;;;5095904;28;20440;-67
2021/12/17 06:26:56;;;;;;;27.00;11.87;;;;;;;;;;5095855;28;20208;-67
2021/12/17 06:29:23;;;;;;;22.90;11.57;;;;;;;;;;5095282;28;20546;-66
2021/12/17 06:31:52;;;;;;;20.37;10.60;;;;;;;;;;5094827;28;20451;-68
2021/12/17 06:34:19;;;;;;;37.07;14.13;;;;;;;;;;5095088;28;20504;-73
2021/12/17 06:36:46;;;;;;;25.90;13.02;;;;;;;;;;5094956;28;20525;-66
2021/12/17 06:39:13;;;;;;;29.30;13.03;;;;;;;;;;5094952;28;20194;-66
2021/12/17 06:41:42;;;;;;;27.33;13.40;;;;;;;;;;5094341;28;20542;-66
2021/12/17 06:44:11;;;;;;;28.07;14.07;;;;;;;;;;5094374;28;20451;-67
2021/12/17 06:46:52;;;;;;;33.17;14.73;;;;;;;;;;5094459;28;20450;-67
2021/12/17 06:49:28;;;;;;;37.73;14.23;;;;;;;;;;5094481;28;20666;-67
2021/12/17 06:54:56;;;;;;;32.20;12.95;;;;;;;;;;5094418;28;20418;-66
2021/12/17 07:00:18;;;;;;;36.17;14.45;;;;;;;;;;5094511;28;20442;-66
2021/12/17 07:11:37;;;;;;;29.80;13.30;;;;;;;;;;5094387;28;20529;-66
2021/12/17 07:22:28;;;;;;;33.20;14.27;;;;;;;;;;5062711;28;20431;-67
2021/12/17 07:33:21;;;;;;;21.55;11.55;;;;;;;;;;5031580;28;20199;-66
2021/12/17 07:35:54;;;;;;;26.92;13.05;;;;;;;;;;5080656;28;20200;-66
2021/12/17 07:38:39;;;;;;;26.65;13.15;;;;;;;;;;5094314;28;20546;-66
2021/12/17 07:41:07;;;;;;;23.67;12.45;;;;;;;;;;5094553;28;20242;-67
2021/12/17 07:43:40;;;;;;;25.08;13.15;;;;;;;;;;5093685;28;20229;-66
2021/12/17 07:46:09;;;;;;;27.30;13.80;;;;;;;;;;5093572;28;20188;-66
2021/12/17 07:48:38;;;;;;;27.13;13.80;;;;;;;;;;5093486;28;20447;-67
2021/12/17 07:51:06;;;;;;;28.00;13.17;;;;;;;;;;5093787;28;20217;-66
2021/12/17 07:53:35;;;;;;;31.80;15.67;;;;;;;;;;5093674;28;20450;-66
2021/12/17 07:56:04;;;;;;;24.73;13.50;;;;;;;;;;5093432;28;20527;-66
2021/12/17 07:58:32;;;;;;;22.88;12.15;;;;;;;;;;5093211;28;20566;-66
2021/12/17 08:00:59;;;;;;;25.60;11.80;;;;;;;;;;5093171;28;20212;-66
2021/12/17 08:03:27;;;;;;;25.92;13.20;;;;;;;;;;5093214;28;20492;-67
2021/12/17 08:05:55;;;;;;;20.77;12.60;;;;;;;;;;5093169;28;20280;-66
2021/12/17 08:08:22;;;;;;;23.13;11.70;;;;;;;;;;5093201;28;20236;-67
2021/12/17 08:10:51;;;;;;;24.70;13.00;;;;;;;;;;5093220;28;20660;-67
2021/12/17 08:13:21;;;;;;;23.35;12.27;;;;;;;;;;5093188;28;20257;-67
2021/12/17 08:16:03;;;;;;;26.10;12.70;;;;;;;;;;5093524;28;20310;-66
2021/12/17 08:18:55;;;;;;;24.23;11.98;;;;;;;;;;5093198;28;20545;-66
2021/12/17 08:27:07;;;;;;;24.70;12.63;;;;;;;;;;5093147;28;20177;-67
2021/12/17 08:29:51;;;;;;;22.83;12.33;;;;;;;;;;5093019;28;20472;-66
2021/12/17 08:32:19;;;;;;;23.58;12.70;;;;;;;;;;5093362;28;20464;-67
2021/12/17 08:34:46;;;;;;;24.02;12.82;;;;;;;;;;5092996;28;20240;-67
2021/12/17 08:37:13;;;;;;;24.63;12.60;;;;;;;;;;5093240;28;20278;-67
2021/12/17 08:39:40;;;;;;;26.43;12.30;;;;;;;;;;5093308;28;20530;-66
2021/12/17 08:42:10;;;;;;;21.55;13.35;;;;;;;;;;5094024;28;20478;-67
2021/12/17 08:44:37;;;;;;;20.67;11.43;;;;;;;;;;5092739;28;20326;-67
2021/12/17 08:47:05;;;;;;;19.08;11.27;;;;;;;;;;5092798;28;20483;-67
2021/12/17 08:49:32;;;;;;;23.23;13.00;;;;;;;;;;5092688;28;20655;-67
2021/12/17 08:52:00;;;;;;;22.07;12.10;;;;;;;;;;5093119;28;20201;-67
2021/12/17 08:54:27;;;;;;;23.60;12.70;;;;;;;;;;5092708;28;20989;-66
2021/12/17 08:56:54;;;;;;;21.40;11.05;;;;;;;;;;5092908;28;20446;-67
2021/12/17 08:59:23;;;;;;;22.07;11.57;;;;;;;;;;5093476;28;20281;-67
2021/12/17 09:01:50;;;;;;;19.67;11.23;;;;;;;;;;5092842;28;20463;-67
2021/12/17 09:04:17;;;;;;;20.73;11.17;;;;;;;;;;5095244;28;20439;-67
2021/12/17 09:06:45;;;;;;;21.77;11.13;;;;;;;;;;5097007;28;20435;-67
2021/12/17 09:09:17;;;;;;;16.87;10.50;;;;;;;;;;5096380;28;20499;-67
2021/12/17 09:11:44;;;;;;;17.60;9.73;;;;;;;;;;5096973;28;20425;-67
2021/12/17 09:14:12;;;;;;;17.43;10.37;;;;;;;;;;5096531;28;20877;-67
2021/12/17 09:16:40;;;;;;;20.47;11.07;;;;;;;;;;5096730;28;20549;-67
2021/12/17 09:19:09;;;;;;;17.50;10.43;;;;;;;;;;5096096;28;20514;-66
2021/12/17 09:21:37;;;;;;;20.03;12.00;;;;;;;;;;5096408;28;20466;-67
2021/12/17 09:24:04;;;;;;;16.40;10.30;;;;;;;;;;5095687;28;20512;-66
2021/12/17 09:26:33;;;;;;;22.57;11.60;;;;;;;;;;5096007;28;20475;-67
2021/12/17 09:29:00;;;;;;;19.00;11.60;;;;;;;;;;5096280;28;20446;-66
2021/12/17 09:31:27;;;;;;;21.10;12.53;;;;;;;;;;5096248;28;20930;-67
2021/12/17 09:33:56;;;;;;;22.80;12.80;;;;;;;;;;5095941;28;20478;-67
2021/12/17 09:36:24;;;;;;;24.13;12.80;;;;;;;;;;5096169;28;20471;-67
2021/12/17 09:38:52;;;;;;;19.57;12.57;;;;;;;;;;5096383;28;20479;-67
2021/12/17 09:41:20;;;;;;;17.20;12.17;;;;;;;;;;5096793;28;20450;-67
2021/12/17 09:43:47;;;;;;;19.63;12.47;;;;;;;;;;5096007;28;20436;-67
2021/12/17 09:46:14;;;;;;;16.80;10.73;;;;;;;;;;5095652;28;20490;-67
2021/12/17 09:48:42;;;;;;;14.00;10.27;;;;;;;;;;5095870;28;20501;-67
2021/12/17 09:51:10;;;;;;;15.50;8.80;;;;;;;;;;5095939;28;20433;-67
2021/12/17 09:53:38;;;;;;;14.90;10.00;;;;;;;;;;5096375;28;20443;-67
2021/12/17 09:56:06;;;;;;;16.17;9.87;;;;;;;;;;5095655;28;20870;-67
2021/12/17 09:58:33;;;;;;;15.07;9.60;;;;;;;;;;5095387;28;20520;-67
2021/12/17 10:01:01;;;;;;;11.33;8.30;;;;;;;;;;5096143;28;20446;-67
2021/12/17 10:03:29;;;;;;;9.57;6.70;;;;;;;;;;5095819;28;20431;-67
2021/12/17 10:05:57;;;;;;;9.47;7.60;;;;;;;;;;5096047;28;20232;-67
2021/12/17 10:08:26;;;;;;;9.30;6.87;;;;;;;;;;5095556;28;20454;-67
2021/12/17 10:10:57;;;;;;;12.03;6.90;;;;;;;;;;5095226;28;20439;-67
2021/12/17 10:13:25;;;;;;;10.07;6.63;;;;;;;;;;5095247;28;20518;-67
2021/12/17 10:15:55;;;;;;;9.98;7.90;;;;;;;;;;5094915;28;20473;-67
2021/12/17 10:18:32;;;;;;;12.37;7.67;;;;;;;;;;5095500;28;20209;-67
2021/12/17 10:21:01;;;;;;;10.60;7.20;;;;;;;;;;5095044;28;20970;-67
2021/12/17 10:23:31;;;;;;;11.40;7.23;;;;;;;;;;5095225;28;20436;-67
2021/12/17 10:25:59;;;;;;;11.47;7.47;;;;;;;;;;5095789;28;20844;-67
2021/12/17 10:28:27;;;;;;;11.13;8.07;;;;;;;;;;5095115;28;20451;-67
2021/12/17 10:30:55;;;;;;;11.60;7.80;;;;;;;;;;5094827;28;20530;-67
2021/12/17 10:33:24;;;;;;;11.23;8.00;;;;;;;;;;5094759;28;20942;-68
2021/12/17 10:35:53;;;;;;;12.03;8.53;;;;;;;;;;5094679;28;20446;-67
2021/12/17 10:38:23;;;;;;;11.13;7.97;;;;;;;;;;5094577;28;20475;-68
2021/12/17 10:40:57;;;;;;;9.17;7.50;;;;;;;;;;5095229;28;20459;-67
2021/12/17 10:43:28;;;;;;;12.63;7.10;;;;;;;;;;5094607;28;20431;-67
2021/12/17 10:46:04;;;;;;;10.53;7.87;;;;;;;;;;5094488;28;20893;-67
2021/12/17 10:48:38;;;;;;;13.03;8.77;;;;;;;;;;5094835;28;20424;-67
2021/12/17 10:51:44;;;;;;;13.00;9.13;;;;;;;;;;5095041;28;20435;-67
2021/12/17 10:54:12;;;;;;;17.70;9.63;;;;;;;;;;5054249;28;20455;-67
2021/12/17 10:56:42;;;;;;;11.50;8.40;;;;;;;;;;5093522;28;20950;-67
2021/12/17 10:59:11;;;;;;;17.10;10.50;;;;;;;;;;5093704;28;20985;-67
2021/12/17 11:01:42;;;;;;;13.33;8.20;;;;;;;;;;5094632;28;20441;-67
2021/12/17 11:04:10;;;;;;;9.20;7.87;;;;;;;;;;5093901;28;20431;-67
2021/12/17 11:06:49;;;;;;;7.83;7.00;;;;;;;;;;5093810;28;20436;-67
2021/12/17 11:09:33;;;;;;;10.53;7.30;;;;;;;;;;5093768;28;20953;-67
2021/12/17 11:12:01;;;;;;;10.73;9.60;;;;;;;;;;5093637;28;20511;-67
2021/12/17 11:14:29;;;;;;;13.90;8.43;;;;;;;;;;5093704;28;20447;-67
2021/12/17 11:16:58;;;;;;;14.23;8.33;;;;;;;;;;5094477;28;20471;-67
2021/12/17 11:19:25;;;;;;;15.30;8.90;;;;;;;;;;5093470;28;20566;-67
2021/12/17 11:21:55;;;;;;;21.13;11.27;;;;;;;;;;5093427;28;20443;-66
2021/12/17 11:24:23;;;;;;;14.37;9.40;;;;;;;;;;5093831;28;20466;-66
2021/12/17 11:26:51;;;;;;;13.63;9.57;;;;;;;;;;5093018;28;20478;-67
2021/12/17 11:29:20;;;;;;;14.10;9.13;;;;;;;;;;5093703;28;20443;-66
2021/12/17 11:31:49;;;;;;;11.80;8.10;;;;;;;;;;5093333;28;20472;-66
2021/12/17 11:34:19;;;;;;;11.47;8.60;;;;;;;;;;5093366;28;20434;-66
2021/12/17 11:36:46;;;;;;;14.87;9.23;;;;;;;;;;5093570;28;20463;-67
2021/12/17 11:39:18;;;;;;;12.50;9.43;;;;;;;;;;5093506;28;20475;-67
2021/12/17 11:41:51;;;;;;;12.57;8.80;;;;;;;;;;5093599;28;20462;-67
2021/12/17 11:44:26;;;;;;;9.73;8.20;;;;;;;;;;5093070;28;20548;-67
2021/12/17 11:47:01;;;;;;;13.50;8.70;;;;;;;;;;5093381;28;20762;-66
2021/12/17 11:49:34;;;;;;;13.50;9.65;;;;;;;;;;5093312;28;20459;-66
2021/12/17 11:52:01;;;;;;;14.90;8.43;;;;;;;;;;5093150;28;20201;-67
2021/12/17 11:54:31;;;;;;;14.53;9.40;;;;;;;;;;5093899;28;20861;-66
2021/12/17 11:57:05;;;;;;;12.70;9.53;;;;;;;;;;5093041;28;20522;-66
2021/12/17 11:59:37;;;;;;;12.97;9.90;;;;;;;;;;5092932;28;20499;-67
2021/12/17 12:02:11;;;;;;;12.07;8.73;;;;;;;;;;5093544;28;20469;-67
2021/12/17 12:05:00;;;;;;;10.83;7.77;;;;;;;;;;5093882;28;20423;-66
2021/12/17 12:07:35;;;;;;;11.63;8.23;;;;;;;;;;5087367;28;20444;-66
2021/12/17 12:10:05;;;;;;;11.23;9.32;;;;;;;;;;5093103;28;20446;-66
2021/12/17 12:12:53;;;;;;;9.80;7.33;;;;;;;;;;5093636;28;20582;-66
2021/12/17 12:15:32;;;;;;;13.73;9.33;;;;;;;;;;5092722;28;20574;-67
2021/12/17 12:18:21;;;;;;;11.73;8.60;;;;;;;;;;5092682;28;20530;-67
2021/12/17 12:20:50;;;;;;;15.73;10.40;;;;;;;;;;5092743;28;20576;-67
2021/12/17 12:23:19;;;;;;;10.77;8.17;;;;;;;;;;5093004;28;20559;-66
2021/12/17 12:25:47;;;;;;;11.80;8.17;;;;;;;;;;5092814;28;20942;-66
2021/12/17 12:28:15;;;;;;;12.30;8.43;;;;;;;;;;5093054;28;20523;-67
2021/12/17 12:30:46;;;;;;;10.40;9.20;;;;;;;;;;5093065;28;20475;-66
2021/12/17 12:33:16;;;;;;;9.30;7.53;;;;;;;;;;5093200;28;20439;-66
2021/12/17 12:35:57;;;;;;;8.20;7.37;;;;;;;;;;5093036;28;20443;-67
2021/12/17 12:38:31;;;;;;;11.53;7.13;;;;;;;;;;5094648;28;20466;-66
2021/12/17 12:41:07;;;;;;;12.70;7.83;;;;;;;;;;5097492;28;20423;-67
2021/12/17 12:43:36;;;;;;;10.33;7.10;;;;;;;;;;5097129;28;20427;-66
2021/12/17 12:46:05;;;;;;;9.93;8.30;;;;;;;;;;5097025;28;20474;-67
2021/12/17 12:48:33;;;;;;;10.73;7.63;;;;;;;;;;5096424;28;20482;-67
2021/12/17 12:51:17;;;;;;;10.20;7.30;;;;;;;;;;5096670;28;20522;-66
2021/12/17 12:53:49;;;;;;;10.63;8.60;;;;;;;;;;5096325;28;20439;-66
2021/12/17 12:56:20;;;;;;;10.07;7.93;;;;;;;;;;5096586;28;20443;-66
2021/12/17 12:58:51;;;;;;;9.67;8.13;;;;;;;;;;5096205;28;20562;-66
2021/12/17 13:01:20;;;;;;;13.50;9.30;;;;;;;;;;5096454;28;20993;-66
2021/12/17 13:03:48;;;;;;;14.60;8.03;;;;;;;;;;5096419;28;20446;-66
2021/12/17 13:06:17;;;;;;;12.70;8.37;;;;;;;;;;5096079;28;20436;-66
2021/12/17 13:08:44;;;;;;;11.30;8.50;;;;;;;;;;5096059;28;20512;-66
2021/12/17 13:11:12;;;;;;;12.50;8.70;;;;;;;;;;5096002;28;20478;-66
2021/12/17 13:13:45;;;;;;;9.97;8.73;;;;;;;;;;5095796;28;20534;-67
2021/12/17 13:16:18;;;;;;;10.80;8.70;;;;;;;;;;5096431;28;20539;-66
2021/12/17 13:21:57;;;;;;;16.43;8.90;;;;;;;;;;5095909;28;20431;-69
2021/12/17 13:24:26;;;;;;;15.73;10.10;;;;;;;;;;5096504;28;20506;-66
2021/12/17 13:26:55;;;;;;;13.27;10.20;;;;;;;;;;5095682;28;20443;-66
2021/12/17 13:29:24;;;;;;;13.73;11.40;;;;;;;;;;5096324;28;20783;-66
2021/12/17 13:31:53;;;;;;;11.53;9.60;;;;;;;;;;5095947;28;20808;-66
2021/12/17 13:34:26;;;;;;;13.00;9.90;;;;;;;;;;5095763;28;20443;-65
2021/12/17 13:36:58;;;;;;;13.20;9.80;;;;;;;;;;5094634;28;20512;-65
2021/12/17 13:39:26;;;;;;;12.17;9.10;;;;;;;;;;5095206;28;20475;-65
2021/12/17 13:41:53;;;;;;;11.73;8.73;;;;;;;;;;5095613;28;20850;-65
2021/12/17 13:44:42;;;;;;;14.10;8.90;;;;;;;;;;5095184;28;20447;-66
2021/12/17 13:47:20;;;;;;;13.30;9.30;;;;;;;;;;5089498;28;20957;-66
2021/12/17 13:49:49;;;;;;;12.17;9.50;;;;;;;;;;5095315;28;20435;-66
2021/12/17 13:52:17;;;;;;;9.73;8.73;;;;;;;;;;5095076;28;20545;-66
2021/12/17 13:54:48;;;;;;;9.33;7.90;;;;;;;;;;5095206;28;20539;-66
2021/12/17 13:57:16;;;;;;;15.73;8.97;;;;;;;;;;5095605;28;20455;-65
2021/12/17 13:59:44;;;;;;;13.10;8.90;;;;;;;;;;5095466;28;20479;-66
2021/12/17 14:02:13;;;;;;;11.03;8.30;;;;;;;;;;5094877;28;20493;-66
2021/12/17 14:04:40;;;;;;;10.90;8.77;;;;;;;;;;5095418;28;20501;-66
2021/12/17 14:07:10;;;;;;;14.27;10.50;;;;;;;;;;5095060;28;20505;-66
2021/12/17 14:09:37;;;;;;;11.57;10.27;;;;;;;;;;5094819;28;20573;-66
2021/12/17 14:12:12;;;;;;;12.13;9.70;;;;;;;;;;5094738;28;20538;-67
2021/12/17 14:14:39;;;;;;;12.50;9.60;;;;;;;;;;5094917;28;20479;-67
2021/12/17 14:17:09;;;;;;;11.27;9.60;;;;;;;;;;5094655;28;20520;-67
2021/12/17 14:19:38;;;;;;;13.90;10.13;;;;;;;;;;5094915;28;20467;-67
2021/12/17 14:22:21;;;;;;;12.20;10.00;;;;;;;;;;5095878;28;20497;-67
2021/12/17 14:24:49;;;;;;;13.27;10.93;;;;;;;;;;5095402;28;20427;-67
2021/12/17 14:27:16;;;;;;;14.60;10.90;;;;;;;;;;5094898;28;20500;-68
2021/12/17 14:29:44;;;;;;;14.30;9.17;;;;;;;;;;5095061;28;20458;-67
2021/12/17 14:32:16;;;;;;;12.87;9.50;;;;;;;;;;5094627;28;20530;-67
2021/12/17 14:34:44;;;;;;;12.77;9.37;;;;;;;;;;5094979;28;20502;-67
2021/12/17 14:37:12;;;;;;;12.88;9.98;;;;;;;;;;5094474;28;20537;-67
2021/12/17 14:39:43;;;;;;;12.07;8.63;;;;;;;;;;5094686;28;20224;-67
2021/12/17 14:42:13;;;;;;;12.07;8.85;;;;;;;;;;5094548;28;20435;-67
2021/12/17 14:44:52;;;;;;;13.60;9.77;;;;;;;;;;5094622;28;20233;-67
2021/12/17 14:47:24;;;;;;;11.00;8.00;;;;;;;;;;5094985;28;20426;-67
2021/12/17 15:01:18;;;;;;;11.10;7.47;;;;;;;;;;5093026;28;20471;-67
2021/12/17 15:03:48;;;;;;;9.70;6.60;;;;;;;;;;5094377;28;20943;-66
2021/12/17 15:06:18;;;;;;;9.85;7.53;;;;;;;;;;5093919;28;20501;-67
2021/12/17 15:08:47;;;;;;;11.20;6.73;;;;;;;;;;5094307;28;20634;-67
2021/12/17 15:11:25;;;;;;;15.70;9.03;;;;;;;;;;5093976;28;20439;-67
2021/12/17 15:14:01;;;;;;;10.48;6.80;;;;;;;;;;5094310;28;20438;-67
2021/12/17 15:16:31;;;;;;;7.97;6.53;;;;;;;;;;5094257;28;20221;-68
2021/12/17 15:19:00;;;;;;;10.90;6.50;;;;;;;;;;5094819;28;20239;-68
2021/12/17 15:21:28;;;;;;;11.27;7.70;;;;;;;;;;5093975;28;20444;-67
2021/12/17 15:23:55;;;;;;;11.10;7.60;;;;;;;;;;5094604;28;20800;-69
2021/12/17 15:26:28;;;;;;;13.30;9.17;;;;;;;;;;5093657;28;20229;-68
2021/12/17 15:28:57;;;;;;;10.33;8.30;;;;;;;;;;5094286;28;20452;-68
2021/12/17 15:31:24;;;;;;;10.23;7.40;;;;;;;;;;5093591;28;20476;-67
2021/12/17 15:33:51;;;;;;;8.00;6.63;;;;;;;;;;5093774;28;20990;-68
2021/12/17 15:36:19;;;;;;;12.57;7.37;;;;;;;;;;5093916;28;20523;-68
2021/12/17 15:38:50;;;;;;;8.00;7.17;;;;;;;;;;5093912;28;20501;-68
2021/12/17 15:41:21;;;;;;;8.95;7.68;;;;;;;;;;5093566;28;20463;-68
2021/12/17 15:43:51;;;;;;;10.03;7.53;;;;;;;;;;5094059;28;20629;-68
2021/12/17 15:46:22;;;;;;;11.00;8.33;;;;;;;;;;5093798;28;20435;-68
2021/12/17 15:48:49;;;;;;;13.03;7.60;;;;;;;;;;5093530;28;20455;-68
2021/12/17 15:51:18;;;;;;;8.50;7.60;;;;;;;;;;5093371;28;20482;-68
2021/12/17 15:53:46;;;;;;;9.87;7.60;;;;;;;;;;5093484;28;20443;-67
2021/12/17 15:56:13;;;;;;;7.27;6.30;;;;;;;;;;5093841;28;20618;-67
2021/12/17 15:58:40;;;;;;;8.40;7.00;;;;;;;;;;5094157;28;20436;-68
2021/12/17 16:01:08;;;;;;;7.75;6.82;;;;;;;;;;5093683;28;20557;-67
2021/12/17 16:03:37;;;;;;;11.70;8.07;;;;;;;;;;5094225;28;20193;-67
2021/12/17 16:06:07;;;;;;;8.90;6.70;;;;;;;;;;5093437;28;20999;-68
2021/12/17 16:08:37;;;;;;;9.10;7.13;;;;;;;;;;5093864;28;20500;-67
2021/12/17 16:21:56;;;;;;;9.03;7.83;;;;;;;;;;5100071;28;20448;-66
2021/12/17 16:24:23;;;;;;;12.07;7.37;;;;;;;;;;5100185;28;20801;-67
2021/12/17 16:26:54;;;;;;;9.17;7.90;;;;;;;;;;5099979;28;20443;-67
2021/12/17 16:29:21;;;;;;;13.00;9.13;;;;;;;;;;5099963;28;20455;-67
2021/12/17 16:31:52;;;;;;;12.53;10.57;;;;;;;;;;5099680;28;20527;-66
2021/12/17 16:34:21;;;;;;;13.30;9.23;;;;;;;;;;5100718;28;20428;-68
2021/12/17 16:36:48;;;;;;;8.50;7.60;;;;;;;;;;5099751;28;20534;-67
2021/12/17 16:39:16;;;;;;;12.13;8.80;;;;;;;;;;5099677;28;20435;-67
2021/12/17 16:41:44;;;;;;;14.53;8.47;;;;;;;;;;5099941;28;20807;-66
2021/12/17 16:44:13;;;;;;;11.63;8.50;;;;;;;;;;5099811;28;20466;-66
2021/12/17 16:47:02;;;;;;;13.63;8.40;;;;;;;;;;5099650;28;20534;-67
2021/12/17 16:49:33;;;;;;;11.73;8.50;;;;;;;;;;5099723;28;20420;-66
2021/12/17 16:52:01;;;;;;;11.10;8.57;;;;;;;;;;5099765;28;20423;-66
2021/12/17 16:54:28;;;;;;;14.50;10.17;;;;;;;;;;5099662;28;20443;-67
2021/12/17 16:56:56;;;;;;;12.20;8.67;;;;;;;;;;5099917;28;20864;-66
2021/12/17 16:59:23;;;;;;;10.90;8.50;;;;;;;;;;5099940;28;20942;-66
2021/12/17 17:01:50;;;;;;;12.00;8.47;;;;;;;;;;5100135;28;20519;-67
2021/12/17 17:04:19;;;;;;;12.20;8.60;;;;;;;;;;5099842;28;20987;-67
2021/12/17 17:06:51;;;;;;;10.17;8.10;;;;;;;;;;5099794;28;20522;-67
2021/12/17 17:09:18;;;;;;;11.80;8.70;;;;;;;;;;5099844;28;20477;-66
2021/12/17 17:11:48;;;;;;;11.73;9.00;;;;;;;;;;5100198;28;20493;-67
2021/12/17 17:14:17;;;;;;;9.77;8.30;;;;;;;;;;5099416;28;20451;-67
2021/12/17 17:16:44;;;;;;;11.73;8.50;;;;;;;;;;5099261;28;20532;-67
2021/12/17 17:19:11;;;;;;;11.27;8.40;;;;;;;;;;5099764;28;20435;-67
2021/12/17 17:21:45;;;;;;;9.43;7.67;;;;;;;;;;5099312;28;21032;-67